| time (UTC) | temp F | wind direction | speed MPH | gust MPH | rain 1hr in | rain 24hr in | rain mn in | humidity % | barometer mb |
| 20260509222053 | 67 | 11 | 1.0 | 2.0 | 0.00 | 0.00 | 0.00 | 42 | 1002.0 |
| 20260509221548 | 66 | 127 | 2.0 | 3.0 | 0.00 | 0.00 | 0.00 | 42 | 1001.9 |
| 20260509221044 | 66 | 297 | 3.0 | 5.0 | 0.00 | 0.00 | 0.00 | 43 | 1001.9 |
| 20260509220540 | 66 | 7 | 3.0 | 5.0 | 0.00 | 0.00 | 0.00 | 42 | 1001.9 |
| 20260509220037 | 66 | 23 | 4.0 | 5.0 | 0.00 | 0.00 | 0.00 | 42 | 1001.8 |
| 20260509215532 | 66 | 358 | 3.0 | 5.0 | 0.00 | 0.00 | 0.00 | 42 | 1001.9 |
| 20260509215030 | 66 | 357 | 4.0 | 6.0 | 0.00 | 0.00 | 0.00 | 42 | 1001.8 |
| 20260509214527 | 68 | 23 | 5.0 | 5.0 | 0.00 | 0.00 | 0.00 | 40 | 1001.6 |
| 20260509214024 | 68 | 72 | 3.0 | 3.0 | 0.00 | 0.00 | 0.00 | 40 | 1001.9 |
| 20260509213520 | 67 | 86 | 2.0 | 3.0 | 0.00 | 0.00 | 0.00 | 40 | 1001.9 |
| 20260509213017 | 69 | 69 | 6.0 | 8.0 | 0.00 | 0.00 | 0.00 | 39 | 1001.9 |
| 20260509212514 | 69 | 326 | 2.0 | 3.0 | 0.00 | 0.00 | 0.00 | 40 | 1001.6 |
| 20260509212011 | 68 | 35 | 4.0 | 5.0 | 0.00 | 0.00 | 0.00 | 39 | 1001.6 |
| 20260509211506 | 68 | 26 | 4.0 | 8.0 | 0.00 | 0.00 | 0.00 | 39 | 1001.6 |
| 20260509211003 | 69 | 335 | 5.0 | 7.0 | 0.00 | 0.00 | 0.00 | 39 | 1001.8 |
| 20260509210500 | 67 | 58 | 3.0 | 3.0 | 0.00 | 0.00 | 0.00 | 40 | 1001.6 |
| 20260509205955 | 68 | 17 | 4.0 | 6.0 | 0.00 | 0.00 | 0.00 | 38 | 1001.5 |
| 20260509205450 | 69 | 318 | 5.0 | 7.0 | 0.00 | 0.00 | 0.00 | 36 | 1001.6 |
| 20260509204946 | 68 | 143 | 5.0 | 7.0 | 0.00 | 0.00 | 0.00 | 36 | 1001.5 |
| 20260509204443 | 69 | 47 | 2.0 | 3.0 | 0.00 | 0.00 | 0.00 | 36 | 1001.5 |
| 20260509203940 | 69 | 302 | 5.0 | 8.0 | 0.00 | 0.00 | 0.00 | 35 | 1001.4 |
| 20260509203435 | 70 | 106 | 5.0 | 6.0 | 0.00 | 0.00 | 0.00 | 33 | 1001.2 |
| 20260509202933 | 69 | 282 | 3.0 | 6.0 | 0.00 | 0.00 | 0.00 | 36 | 1001.5 |
| 20260509202429 | 69 | 276 | 2.0 | 2.0 | 0.00 | 0.00 | 0.00 | 37 | 1001.3 |
| 20260509201924 | 68 | 207 | 4.0 | 6.0 | 0.00 | 0.00 | 0.00 | 36 | 1001.4 |
| 20260509201419 | 69 | 0 | 5.0 | 7.0 | 0.00 | 0.00 | 0.00 | 34 | 1001.5 |
| 20260509200917 | 68 | 58 | 5.0 | 7.0 | 0.00 | 0.00 | 0.00 | 37 | 1001.4 |
| 20260509200416 | 68 | 354 | 4.0 | 5.0 | 0.00 | 0.00 | 0.00 | 38 | 1001.5 |
| 20260509195913 | 68 | 354 | 1.0 | 2.0 | 0.00 | 0.00 | 0.00 | 38 | 1001.2 |
| 20260509195409 | 69 | 352 | 6.0 | 8.0 | 0.00 | 0.00 | 0.00 | 37 | 1001.3 |
| 20260509194908 | 69 | 181 | 5.0 | 6.0 | 0.00 | 0.00 | 0.00 | 41 | 1001.3 |
| 20260509194405 | 68 | 20 | 3.0 | 5.0 | 0.00 | 0.00 | 0.00 | 44 | 1001.3 |
| 20260509193902 | 68 | 150 | 2.0 | 2.0 | 0.00 | 0.00 | 0.00 | 44 | 1001.4 |
| 20260509193401 | 68 | 22 | 3.0 | 3.0 | 0.00 | 0.00 | 0.00 | 45 | 1001.5 |
| 20260509192858 | 66 | 72 | 1.0 | 1.0 | 0.00 | 0.00 | 0.00 | 47 | 1001.5 |
| 20260509192354 | 65 | 345 | 0.0 | 1.0 | 0.00 | 0.00 | 0.00 | 48 | 1002.0 |
| 20260509191849 | 65 | 356 | 3.0 | 5.0 | 0.00 | 0.00 | 0.00 | 49 | 1002.2 |
| 20260509191345 | 64 | 132 | 0.0 | 1.0 | 0.00 | 0.00 | 0.00 | 51 | 1002.5 |
| 20260509190842 | 62 | 248 | 1.0 | 2.0 | 0.00 | 0.00 | 0.00 | 52 | 1002.6 |
| 20260509190338 | 62 | 312 | 0.0 | 1.0 | 0.00 | 0.00 | 0.00 | 55 | 1002.5 |
| 20260509185836 | 61 | 18 | 3.0 | 3.0 | 0.00 | 0.00 | 0.00 | 54 | 1002.6 |
| 20260509185332 | 61 | 1 | 2.0 | 3.0 | 0.00 | 0.00 | 0.00 | 55 | 1002.3 |
| 20260509184830 | 61 | 50 | 2.0 | 3.0 | 0.00 | 0.00 | 0.00 | 54 | 1002.0 |
| 20260509184327 | 61 | 27 | 3.0 | 3.0 | 0.00 | 0.00 | 0.00 | 52 | 1002.2 |
| 20260509183823 | 62 | 276 | 3.0 | 3.0 | 0.00 | 0.00 | 0.00 | 53 | 1002.4 |
| 20260509183318 | 62 | 325 | 0.0 | 1.0 | 0.00 | 0.00 | 0.00 | 51 | 1002.0 |
| 20260509182815 | 62 | 17 | 2.0 | 2.0 | 0.00 | 0.00 | 0.00 | 51 | 1002.0 |
| 20260509182312 | 62 | 23 | 2.0 | 2.0 | 0.00 | 0.00 | 0.00 | 50 | 1002.1 |
| 20260509181809 | 63 | 349 | 2.0 | 2.0 | 0.00 | 0.00 | 0.00 | 49 | 1002.1 |
| 20260509181306 | 63 | 7 | 3.0 | 5.0 | 0.00 | 0.00 | 0.00 | 47 | 1002.2 |
| 20260509180804 | 64 | 331 | 10.0 | 15.0 | 0.00 | 0.00 | 0.00 | 47 | 1001.8 |
| 20260509180300 | 65 | 4 | 4.0 | 5.0 | 0.00 | 0.00 | 0.00 | 51 | 1001.9 |
| 20260509175756 | 67 | 0 | 5.0 | 6.0 | 0.00 | 0.00 | 0.00 | 50 | 1002.0 |
| 20260509175253 | 66 | 35 | 6.0 | 8.0 | 0.00 | 0.00 | 0.00 | 52 | 1002.0 |
| 20260509174749 | 65 | 343 | 3.0 | 3.0 | 0.00 | 0.00 | 0.00 | 53 | 1001.9 |
| 20260509174244 | 65 | 61 | 4.0 | 5.0 | 0.00 | 0.00 | 0.00 | 54 | 1001.8 |
| 20260509173740 | 65 | 275 | 2.0 | 3.0 | 0.00 | 0.00 | 0.00 | 56 | 1001.8 |
| 20260509173236 | 64 | 26 | 3.0 | 5.0 | 0.00 | 0.00 | 0.00 | 56 | 1001.8 |
| 20260509172732 | 64 | 299 | 3.0 | 3.0 | 0.00 | 0.00 | 0.00 | 57 | 1001.6 |
| 20260509172229 | 66 | 82 | 4.0 | 6.0 | 0.00 | 0.00 | 0.00 | 54 | 1001.5 |
| 20260509171724 | 67 | 70 | 6.0 | 8.0 | 0.00 | 0.00 | 0.00 | 49 | 1001.4 |
| 20260509171221 | 67 | 42 | 3.0 | 5.0 | 0.00 | 0.00 | 0.00 | 49 | 1001.3 |
| 20260509170718 | 66 | 25 | 5.0 | 7.0 | 0.00 | 0.00 | 0.00 | 53 | 1001.1 |
| 20260509170214 | 66 | 2 | 5.0 | 6.0 | 0.00 | 0.00 | 0.00 | 52 | 1001.0 |
| 20260509165712 | 67 | 43 | 3.0 | 5.0 | 0.00 | 0.00 | 0.00 | 51 | 1001.0 |
| 20260509165208 | 68 | 266 | 1.0 | 1.0 | 0.00 | 0.00 | 0.00 | 51 | 1000.8 |
| 20260509164704 | 69 | 24 | 2.0 | 2.0 | 0.00 | 0.00 | 0.00 | 50 | 1000.7 |
| 20260509164200 | 68 | 300 | 1.0 | 2.0 | 0.00 | 0.00 | 0.00 | 52 | 1000.7 |
| 20260509163657 | 69 | 145 | 5.0 | 7.0 | 0.00 | 0.00 | 0.00 | 50 | 1000.6 |
| 20260509163153 | 69 | 282 | 1.0 | 1.0 | 0.00 | 0.00 | 0.00 | 52 | 1000.7 |
| 20260509162651 | 69 | 114 | 0.0 | 1.0 | 0.00 | 0.00 | 0.00 | 52 | 1000.7 |
| 20260509162146 | 69 | 321 | 3.0 | 6.0 | 0.00 | 0.00 | 0.00 | 50 | 1000.6 |
| 20260509161643 | 68 | 187 | 3.0 | 7.0 | 0.00 | 0.00 | 0.00 | 51 | 1000.6 |
| 20260509161138 | 68 | 206 | 3.0 | 5.0 | 0.00 | 0.00 | 0.00 | 52 | 1000.6 |
| 20260509160634 | 68 | 204 | 4.0 | 6.0 | 0.00 | 0.00 | 0.00 | 52 | 1000.4 |
| 20260509160129 | 68 | 168 | 2.0 | 3.0 | 0.00 | 0.00 | 0.00 | 53 | 1000.5 |
| 20260509155626 | 68 | 322 | 4.0 | 6.0 | 0.00 | 0.00 | 0.00 | 51 | 1000.4 |
| 20260509155122 | 67 | 339 | 2.0 | 3.0 | 0.00 | 0.00 | 0.00 | 54 | 1000.6 |
| 20260509154618 | 67 | 323 | 3.0 | 6.0 | 0.00 | 0.00 | 0.00 | 54 | 1000.2 |
| 20260509154115 | 67 | 356 | 6.0 | 7.0 | 0.00 | 0.00 | 0.00 | 53 | 1000.6 |
| 20260509153612 | 66 | 231 | 2.0 | 5.0 | 0.00 | 0.00 | 0.00 | 54 | 1000.6 |
| 20260509153109 | 67 | 159 | 4.0 | 6.0 | 0.00 | 0.00 | 0.00 | 54 | 1000.4 |
| 20260509152605 | 65 | 158 | 3.0 | 5.0 | 0.00 | 0.00 | 0.00 | 58 | 1000.6 |
| 20260509152103 | 66 | 357 | 1.0 | 2.0 | 0.00 | 0.00 | 0.00 | 58 | 1000.6 |
| 20260509151558 | 65 | 335 | 5.0 | 10.0 | 0.00 | 0.00 | 0.00 | 59 | 1000.7 |
| 20260509151057 | 65 | 163 | 1.0 | 2.0 | 0.00 | 0.00 | 0.00 | 60 | 1000.7 |
| 20260509150554 | 65 | 154 | 1.0 | 3.0 | 0.00 | 0.00 | 0.00 | 60 | 1000.7 |
| 20260509150052 | 65 | 174 | 5.0 | 7.0 | 0.00 | 0.00 | 0.00 | 60 | 1000.8 |
| 20260509145547 | 65 | 9 | 3.0 | 5.0 | 0.00 | 0.00 | 0.00 | 60 | 1001.0 |
| 20260509145043 | 65 | 23 | 0.0 | 1.0 | 0.00 | 0.00 | 0.00 | 61 | 1000.8 |
| 20260509144540 | 64 | 177 | 3.0 | 3.0 | 0.00 | 0.00 | 0.00 | 63 | 1001.0 |
| 20260509144037 | 63 | 149 | 1.0 | 2.0 | 0.00 | 0.00 | 0.00 | 62 | 1001.0 |
| 20260509143534 | 63 | 147 | 1.0 | 2.0 | 0.00 | 0.00 | 0.00 | 63 | 1000.9 |
| 20260509143033 | 62 | 191 | 1.0 | 1.0 | 0.00 | 0.00 | 0.00 | 66 | 1000.8 |
| 20260509142533 | 63 | 290 | 1.0 | 2.0 | 0.00 | 0.00 | 0.00 | 66 | 1000.7 |
| 20260509142029 | 63 | 301 | 2.0 | 5.0 | 0.00 | 0.00 | 0.00 | 66 | 1000.7 |
| 20260509141526 | 62 | 137 | 2.0 | 3.0 | 0.00 | 0.00 | 0.00 | 68 | 1000.9 |
| 20260509141023 | 62 | 142 | 3.0 | 5.0 | 0.00 | 0.00 | 0.00 | 68 | 1000.9 |
| 20260509140519 | 61 | 208 | 1.0 | 2.0 | 0.00 | 0.00 | 0.00 | 72 | 1000.9 |
| 20260509140017 | 62 | 156 | 2.0 | 3.0 | 0.00 | 0.00 | 0.00 | 71 | 1001.0 |
| 20260509135514 | 62 | 170 | 2.0 | 3.0 | 0.00 | 0.00 | 0.00 | 71 | 1001.2 |
| 20260509135012 | 62 | 189 | 2.0 | 2.0 | 0.00 | 0.00 | 0.00 | 71 | 1001.2 |
| 20260509134509 | 60 | 14 | 1.0 | 1.0 | 0.00 | 0.00 | 0.00 | 74 | 1001.2 |
| 20260509134007 | 59 | 191 | 0.0 | 1.0 | 0.00 | 0.00 | 0.00 | 77 | 1001.2 |
| 20260509133503 | 57 | 124 | 2.0 | 3.0 | 0.00 | 0.00 | 0.00 | 79 | 1001.2 |
| 20260509133001 | 56 | 169 | 3.0 | 3.0 | 0.00 | 0.00 | 0.00 | 82 | 1001.2 |
| 20260509132459 | 56 | 159 | 2.0 | 3.0 | 0.00 | 0.00 | 0.00 | 83 | 1001.3 |
| 20260509131955 | 56 | 160 | 3.0 | 3.0 | 0.00 | 0.00 | 0.00 | 81 | 1001.5 |
| 20260509131452 | 56 | 174 | 3.0 | 5.0 | 0.00 | 0.00 | 0.00 | 82 | 1001.4 |
| 20260509130949 | 56 | 161 | 1.0 | 1.0 | 0.00 | 0.00 | 0.00 | 82 | 1001.6 |
| 20260509130444 | 55 | 147 | 2.0 | 2.0 | 0.00 | 0.00 | 0.00 | 84 | 1001.9 |
| 20260509125942 | 54 | 304 | 1.0 | 1.0 | 0.00 | 0.00 | 0.00 | 88 | 1001.5 |
| 20260509125438 | 53 | 153 | 2.0 | 2.0 | 0.00 | 0.00 | 0.00 | 89 | 1001.6 |
| 20260509124934 | 53 | 156 | 2.0 | 3.0 | 0.00 | 0.00 | 0.00 | 89 | 1001.8 |
| 20260509124432 | 53 | 150 | 1.0 | 2.0 | 0.00 | 0.00 | 0.00 | 89 | 1001.9 |
| 20260509123929 | 53 | 107 | 0.0 | 0.0 | 0.00 | 0.00 | 0.00 | 90 | 1002.0 |
| 20260509123426 | 53 | 183 | 1.0 | 1.0 | 0.00 | 0.00 | 0.00 | 91 | 1001.9 |
| 20260509122922 | 53 | 196 | 1.0 | 1.0 | 0.00 | 0.00 | 0.00 | 91 | 1002.2 |
| 20260509122419 | 52 | 280 | 1.0 | 3.0 | 0.00 | 0.00 | 0.00 | 92 | 1002.1 |
| 20260509121916 | 52 | 131 | 0.0 | 1.0 | 0.00 | 0.00 | 0.00 | 93 | 1002.2 |
| 20260509121413 | 52 | 294 | 2.0 | 3.0 | 0.00 | 0.00 | 0.00 | 93 | 1002.0 |
| 20260509120911 | 51 | 153 | 5.0 | 6.0 | 0.00 | 0.00 | 0.00 | 93 | 1002.0 |
| 20260509120408 | 52 | 160 | 1.0 | 2.0 | 0.00 | 0.00 | 0.00 | 93 | 1002.3 |
| 20260509115906 | 52 | 352 | 0.0 | 0.0 | 0.00 | 0.00 | 0.00 | 93 | 1002.5 |
| 20260509115403 | 52 | 135 | 3.0 | 5.0 | 0.00 | 0.00 | 0.00 | 93 | 1002.7 |
| 20260509114901 | 51 | 313 | 1.0 | 3.0 | 0.00 | 0.00 | 0.00 | 94 | 1002.5 |
| 20260509114359 | 51 | 159 | 0.0 | 0.0 | 0.00 | 0.00 | 0.00 | 95 | 1002.4 |
| 20260509113858 | 51 | 9 | 1.0 | 1.0 | 0.00 | 0.00 | 0.00 | 96 | 1002.3 |
| 20260509113355 | 50 | 271 | 0.0 | 0.0 | 0.00 | 0.00 | 0.00 | 96 | 1002.4 |
| 20260509112852 | 50 | 182 | 0.0 | 0.0 | 0.00 | 0.00 | 0.00 | 97 | 1002.5 |
| 20260509112349 | 50 | 309 | 0.0 | 0.0 | 0.00 | 0.00 | 0.00 | 97 | 1002.4 |
| 20260509111846 | 50 | 15 | 0.0 | 0.0 | 0.00 | 0.00 | 0.00 | 98 | 1002.3 |
| 20260509111343 | 49 | 146 | 1.0 | 1.0 | 0.00 | 0.00 | 0.00 | 98 | 1002.3 |
| 20260509110841 | 49 | 1 | 0.0 | 0.0 | 0.00 | 0.00 | 0.00 | 98 | 1002.4 |
| 20260509110336 | 49 | 164 | 0.0 | 0.0 | 0.00 | 0.00 | 0.00 | 98 | 1002.4 |
| 20260509105835 | 49 | 304 | 0.0 | 0.0 | 0.00 | 0.00 | 0.00 | 99 | 1002.2 |
| 20260509105333 | 48 | 155 | 0.0 | 1.0 | 0.00 | 0.00 | 0.00 | 99 | 1002.2 |
| 20260509104829 | 48 | 86 | 0.0 | 0.0 | 0.00 | 0.00 | 0.00 | 99 | 1002.5 |
| 20260509104326 | 48 | 324 | 0.0 | 0.0 | 0.00 | 0.00 | 0.00 | 99 | 1002.3 |
| 20260509103824 | 48 | 191 | 0.0 | 0.0 | 0.00 | 0.00 | 0.00 | 99 | 1002.3 |
| 20260509103321 | 48 | 141 | 0.0 | 0.0 | 0.00 | 0.00 | 0.00 | 99 | 1002.1 |
| 20260509102820 | 48 | 156 | 0.0 | 0.0 | 0.00 | 0.00 | 0.00 | 99 | 1002.5 |
| 20260509102316 | 48 | 138 | 0.0 | 0.0 | 0.00 | 0.00 | 0.00 | 99 | 1002.6 |
| 20260509101812 | 48 | 161 | 0.0 | 0.0 | 0.00 | 0.00 | 0.00 | 99 | 1002.6 |
| 20260509101308 | 48 | 8 | 0.0 | 0.0 | 0.00 | 0.00 | 0.00 | 99 | 1002.5 |
| 20260509100806 | 47 | 36 | 0.0 | 0.0 | 0.00 | 0.00 | 0.00 | 99 | 1002.7 |
| 20260509100303 | 47 | 338 | 0.0 | 0.0 | 0.00 | 0.00 | 0.00 | 99 | 1002.7 |
| 20260509095759 | 47 | 341 | 0.0 | 0.0 | 0.00 | 0.00 | 0.00 | 99 | 1002.6 |
| 20260509095257 | 47 | 31 | 0.0 | 0.0 | 0.00 | 0.00 | 0.00 | 99 | 1002.7 |
| 20260509094754 | 47 | 2 | 0.0 | 0.0 | 0.00 | 0.00 | 0.00 | 99 | 1002.8 |
| 20260509094251 | 47 | 10 | 0.0 | 0.0 | 0.00 | 0.00 | 0.00 | 99 | 1003.1 |
| 20260509093749 | 47 | 12 | 0.0 | 0.0 | 0.00 | 0.00 | 0.00 | 99 | 1002.8 |
| 20260509093245 | 47 | 354 | 0.0 | 0.0 | 0.00 | 0.00 | 0.00 | 98 | 1003.0 |
| 20260509092744 | 47 | 339 | 0.0 | 0.0 | 0.00 | 0.00 | 0.00 | 98 | 1002.9 |
| 20260509092242 | 47 | 6 | 0.0 | 0.0 | 0.00 | 0.00 | 0.00 | 98 | 1003.0 |
| 20260509091739 | 47 | 19 | 0.0 | 0.0 | 0.00 | 0.00 | 0.00 | 98 | 1003.2 |
| 20260509091235 | 47 | 9 | 0.0 | 0.0 | 0.00 | 0.00 | 0.00 | 97 | 1003.2 |
| 20260509090733 | 47 | 359 | 0.0 | 0.0 | 0.00 | 0.00 | 0.00 | 98 | 1003.3 |
| 20260509090230 | 47 | 328 | 0.0 | 0.0 | 0.00 | 0.00 | 0.00 | 98 | 1003.3 |
| 20260509085728 | 47 | 356 | 0.0 | 0.0 | 0.00 | 0.00 | 0.00 | 98 | 1003.3 |
| 20260509085225 | 47 | 189 | 0.0 | 0.0 | 0.00 | 0.00 | 0.00 | 97 | 1003.4 |
| 20260509084721 | 47 | 15 | 0.0 | 0.0 | 0.00 | 0.00 | 0.00 | 96 | 1003.4 |
| 20260509084218 | 47 | 20 | 0.0 | 0.0 | 0.00 | 0.00 | 0.00 | 96 | 1003.4 |
| 20260509083716 | 47 | 28 | 0.0 | 0.0 | 0.00 | 0.00 | 0.00 | 96 | 1003.3 |
| 20260509083212 | 48 | 1 | 0.0 | 0.0 | 0.00 | 0.00 | 0.00 | 96 | 1003.3 |
| 20260509082709 | 48 | 6 | 0.0 | 0.0 | 0.00 | 0.00 | 0.00 | 95 | 1003.6 |
| 20260509082206 | 48 | 348 | 0.0 | 0.0 | 0.00 | 0.00 | 0.00 | 95 | 1003.5 |
| 20260509081703 | 48 | 3 | 0.0 | 0.0 | 0.00 | 0.00 | 0.00 | 95 | 1003.4 |
| 20260509081200 | 48 | 325 | 0.0 | 0.0 | 0.00 | 0.00 | 0.00 | 95 | 1003.3 |
| 20260509080658 | 48 | 7 | 0.0 | 0.0 | 0.00 | 0.00 | 0.00 | 94 | 1003.3 |
| 20260509080156 | 48 | 44 | 0.0 | 0.0 | 0.00 | 0.00 | 0.00 | 95 | 1003.4 |
| 20260509075654 | 48 | 6 | 0.0 | 0.0 | 0.00 | 0.00 | 0.00 | 94 | 1003.3 |
| 20260509075151 | 48 | 12 | 0.0 | 0.0 | 0.00 | 0.00 | 0.00 | 94 | 1003.5 |
| 20260509074648 | 47 | 8 | 0.0 | 0.0 | 0.00 | 0.00 | 0.00 | 93 | 1003.5 |
| 20260509074144 | 47 | 1 | 0.0 | 0.0 | 0.00 | 0.00 | 0.00 | 93 | 1003.4 |
| 20260509073641 | 47 | 354 | 0.0 | 0.0 | 0.00 | 0.00 | 0.00 | 92 | 1003.6 |
| 20260509073137 | 47 | 302 | 0.0 | 1.0 | 0.00 | 0.00 | 0.00 | 90 | 1003.5 |
| 20260509072635 | 47 | 52 | 0.0 | 0.0 | 0.00 | 0.00 | 0.00 | 91 | 1003.6 |
| 20260509072131 | 46 | 4 | 0.0 | 0.0 | 0.00 | 0.00 | 0.00 | 90 | 1003.4 |
| 20260509071628 | 46 | 339 | 0.0 | 0.0 | 0.00 | 0.00 | 0.00 | 90 | 1003.3 |
| 20260509071125 | 46 | 21 | 0.0 | 0.0 | 0.00 | 0.00 | 0.00 | 86 | 1003.8 |
| 20260509070622 | 46 | 11 | 0.0 | 0.0 | 0.00 | 0.00 | 0.00 | 86 | 1003.7 |
| 20260509070119 | 46 | 17 | 0.0 | 0.0 | 0.00 | 0.00 | 0.00 | 86 | 1003.7 |
| 20260509065614 | 46 | 21 | 0.0 | 0.0 | 0.00 | 0.00 | 0.00 | 86 | 1003.7 |
| 20260509065110 | 45 | 27 | 0.0 | 0.0 | 0.00 | 0.00 | 0.00 | 83 | 1003.7 |
| 20260509064608 | 45 | 20 | 0.0 | 0.0 | 0.00 | 0.00 | 0.00 | 77 | 1003.9 |
| 20260509064106 | 45 | 13 | 0.0 | 0.0 | 0.00 | 0.00 | 0.00 | 75 | 1004.1 |
| 20260509063602 | 46 | 14 | 0.0 | 0.0 | 0.00 | 0.00 | 0.00 | 73 | 1004.2 |
| 20260509063059 | 46 | 356 | 0.0 | 0.0 | 0.00 | 0.00 | 0.00 | 73 | 1004.0 |
| 20260509062556 | 46 | 8 | 0.0 | 0.0 | 0.00 | 0.00 | 0.00 | 71 | 1004.1 |
| 20260509062053 | 46 | 54 | 0.0 | 0.0 | 0.00 | 0.00 | 0.00 | 68 | 1004.2 |
| 20260509061550 | 46 | 31 | 0.0 | 0.0 | 0.00 | 0.00 | 0.00 | 66 | 1004.5 |
| 20260509061047 | 46 | 12 | 0.0 | 0.0 | 0.00 | 0.00 | 0.00 | 63 | 1004.4 |
| 20260509060545 | 45 | 10 | 0.0 | 0.0 | 0.00 | 0.00 | 0.00 | 61 | 1004.2 |
| 20260509060040 | 44 | 3 | 0.0 | 0.0 | 0.00 | 0.00 | 0.00 | 61 | 1004.3 |
| 20260509055536 | 44 | 21 | 0.0 | 0.0 | 0.00 | 0.00 | 0.00 | 62 | 1004.4 |
| 20260509055032 | 43 | 9 | 0.0 | 0.0 | 0.00 | 0.00 | 0.00 | 58 | 1004.6 |
| 20260509054529 | 43 | 21 | 0.0 | 0.0 | 0.00 | 0.00 | 0.00 | 61 | 1004.5 |
| 20260509054027 | 43 | 24 | 0.0 | 0.0 | 0.00 | 0.00 | 0.00 | 62 | 1004.6 |
| 20260509053526 | 42 | 13 | 0.0 | 0.0 | 0.00 | 0.00 | 0.00 | 62 | 1004.6 |
| 20260509053022 | 43 | 26 | 0.0 | 0.0 | 0.00 | 0.00 | 0.00 | 62 | 1004.7 |
| 20260509052520 | 43 | 13 | 0.0 | 0.0 | 0.00 | 0.00 | 0.00 | 60 | 1004.8 |
| 20260509052018 | 43 | 35 | 0.0 | 0.0 | 0.00 | 0.00 | 0.00 | 61 | 1004.8 |
| 20260509051515 | 43 | 9 | 0.0 | 0.0 | 0.00 | 0.00 | 0.00 | 63 | 1004.7 |
| 20260509051012 | 43 | 4 | 0.0 | 0.0 | 0.00 | 0.00 | 0.00 | 62 | 1004.8 |
| 20260509050509 | 43 | 11 | 0.0 | 0.0 | 0.00 | 0.00 | 0.00 | 61 | 1004.9 |
| 20260509050005 | 43 | 26 | 0.0 | 0.0 | 0.00 | 0.00 | 0.00 | 64 | 1004.7 |
| 20260509045502 | 43 | 6 | 0.0 | 0.0 | 0.00 | 0.00 | 0.00 | 64 | 1004.8 |
| 20260509044959 | 43 | 6 | 0.0 | 0.0 | 0.00 | 0.00 | 0.00 | 62 | 1005.1 |
| 20260509044457 | 43 | 13 | 0.0 | 0.0 | 0.00 | 0.00 | 0.00 | 64 | 1005.0 |
| 20260509043954 | 43 | 16 | 0.0 | 0.0 | 0.00 | 0.00 | 0.00 | 65 | 1004.9 |
| 20260509043450 | 43 | 27 | 0.0 | 0.0 | 0.00 | 0.00 | 0.00 | 68 | 1004.9 |
| 20260509042945 | 43 | 29 | 0.0 | 0.0 | 0.00 | 0.00 | 0.00 | 68 | 1004.8 |
| 20260509042443 | 43 | 27 | 0.0 | 0.0 | 0.00 | 0.00 | 0.00 | 66 | 1004.9 |
| 20260509041939 | 43 | 27 | 0.0 | 0.0 | 0.00 | 0.00 | 0.00 | 65 | 1005.1 |
| 20260509041436 | 43 | 27 | 0.0 | 0.0 | 0.00 | 0.00 | 0.00 | 64 | 1005.1 |
| 20260509040934 | 43 | 27 | 0.0 | 0.0 | 0.00 | 0.00 | 0.00 | 65 | 1005.2 |
| 20260509040432 | 44 | 27 | 0.0 | 0.0 | 0.00 | 0.00 | 0.00 | 65 | 1004.9 |
| 20260509035928 | 44 | 27 | 0.0 | 0.0 | 0.00 | 0.00 | 0.00 | 65 | 1005.3 |
| 20260509035425 | 44 | 24 | 0.0 | 0.0 | 0.00 | 0.00 | 0.00 | 63 | 1005.1 |
| 20260509034921 | 44 | 8 | 0.0 | 0.0 | 0.00 | 0.00 | 0.00 | 62 | 1005.3 |
| 20260509034420 | 44 | 27 | 0.0 | 0.0 | 0.00 | 0.00 | 0.00 | 64 | 1005.4 |
| 20260509033916 | 44 | 28 | 0.0 | 0.0 | 0.00 | 0.00 | 0.00 | 63 | 1005.3 |
| 20260509033413 | 44 | 15 | 0.0 | 0.0 | 0.00 | 0.00 | 0.00 | 62 | 1005.3 |
| 20260509032910 | 44 | 28 | 0.0 | 0.0 | 0.00 | 0.00 | 0.00 | 62 | 1005.1 |
| 20260509032407 | 45 | 28 | 0.0 | 0.0 | 0.00 | 0.00 | 0.00 | 59 | 1005.2 |
| 20260509031905 | 45 | 28 | 0.0 | 0.0 | 0.00 | 0.00 | 0.00 | 58 | 1005.1 |
| 20260509031402 | 45 | 28 | 0.0 | 0.0 | 0.00 | 0.00 | 0.00 | 56 | 1005.2 |
| 20260509030859 | 46 | 19 | 0.0 | 0.0 | 0.00 | 0.00 | 0.00 | 55 | 1005.5 |
| 20260509030358 | 46 | 15 | 0.0 | 0.0 | 0.00 | 0.00 | 0.00 | 55 | 1005.5 |
| 20260509025854 | 46 | 16 | 0.0 | 0.0 | 0.00 | 0.00 | 0.00 | 52 | 1005.5 |
| 20260509025349 | 46 | 23 | 0.0 | 0.0 | 0.00 | 0.00 | 0.00 | 52 | 1005.4 |
| 20260509024845 | 47 | 17 | 0.0 | 0.0 | 0.00 | 0.00 | 0.00 | 50 | 1005.6 |
| 20260509024341 | 47 | 29 | 0.0 | 0.0 | 0.00 | 0.00 | 0.00 | 49 | 1005.7 |
| 20260509023839 | 47 | 29 | 0.0 | 0.0 | 0.00 | 0.00 | 0.00 | 48 | 1005.9 |
| 20260509023336 | 47 | 29 | 0.0 | 0.0 | 0.00 | 0.00 | 0.00 | 47 | 1006.0 |
| 20260509022832 | 47 | 29 | 0.0 | 0.0 | 0.00 | 0.00 | 0.00 | 48 | 1006.0 |
| 20260509022330 | 48 | 33 | 0.0 | 0.0 | 0.00 | 0.00 | 0.00 | 47 | 1005.9 |
| 20260509021826 | 48 | 29 | 0.0 | 0.0 | 0.00 | 0.00 | 0.00 | 46 | 1005.6 |
| 20260509021324 | 49 | 29 | 0.0 | 0.0 | 0.00 | 0.00 | 0.00 | 43 | 1005.9 |
| 20260509020821 | 49 | 29 | 0.0 | 0.0 | 0.00 | 0.00 | 0.00 | 42 | 1005.6 |
| 20260509020319 | 50 | 29 | 0.0 | 0.0 | 0.00 | 0.00 | 0.00 | 43 | 1006.0 |
| 20260509015817 | 50 | 29 | 0.0 | 0.0 | 0.00 | 0.00 | 0.00 | 44 | 1005.7 |
| 20260509015315 | 50 | 30 | 0.0 | 0.0 | 0.00 | 0.00 | 0.00 | 44 | 1005.5 |
| 20260509014811 | 51 | 20 | 0.0 | 0.0 | 0.00 | 0.00 | 0.00 | 42 | 1005.7 |
| 20260509014308 | 51 | 30 | 0.0 | 0.0 | 0.00 | 0.00 | 0.00 | 38 | 1005.3 |
| 20260509013805 | 52 | 30 | 0.0 | 0.0 | 0.00 | 0.00 | 0.00 | 37 | 1005.4 |
| 20260509013301 | 53 | 29 | 0.0 | 0.0 | 0.00 | 0.00 | 0.00 | 35 | 1005.7 |
| 20260509012757 | 53 | 29 | 0.0 | 0.0 | 0.00 | 0.00 | 0.00 | 35 | 1005.5 |
| 20260509012254 | 55 | 22 | 0.0 | 0.0 | 0.00 | 0.00 | 0.00 | 33 | 1005.3 |
| 20260509011751 | 56 | 17 | 0.0 | 0.0 | 0.00 | 0.00 | 0.00 | 31 | 1005.6 |
| 20260509011248 | 56 | 16 | 0.0 | 0.0 | 0.00 | 0.00 | 0.00 | 30 | 1005.5 |
| 20260509010746 | 57 | 12 | 0.0 | 0.0 | 0.00 | 0.00 | 0.00 | 29 | 1005.5 |
| 20260509010243 | 57 | 10 | 0.0 | 0.0 | 0.00 | 0.00 | 0.00 | 28 | 1005.5 |
| 20260509005741 | 57 | 41 | 0.0 | 0.0 | 0.00 | 0.00 | 0.00 | 27 | 1005.4 |
| 20260509005238 | 58 | 11 | 0.0 | 0.0 | 0.00 | 0.00 | 0.00 | 27 | 1005.4 |
| 20260509004737 | 58 | 12 | 0.0 | 0.0 | 0.00 | 0.00 | 0.00 | 26 | 1005.4 |
| 20260509004235 | 58 | 13 | 2.0 | 2.0 | 0.00 | 0.00 | 0.00 | 26 | 1005.2 |
| 20260509003733 | 59 | 58 | 1.0 | 1.0 | 0.00 | 0.00 | 0.00 | 26 | 1005.3 |
| 20260509003230 | 59 | 34 | 0.0 | 1.0 | 0.00 | 0.00 | 0.00 | 26 | 1005.3 |
| 20260509002727 | 60 | 3 | 1.0 | 2.0 | 0.00 | 0.00 | 0.00 | 25 | 1005.3 |
| 20260509002225 | 60 | 20 | 1.0 | 2.0 | 0.00 | 0.00 | 0.00 | 26 | 1005.2 |
| 20260509001723 | 60 | 5 | 1.0 | 2.0 | 0.00 | 0.00 | 0.00 | 25 | 1005.1 |
| 20260509001218 | 61 | 18 | 1.0 | 2.0 | 0.00 | 0.00 | 0.00 | 25 | 1005.2 |
| 20260509000717 | 61 | 38 | 2.0 | 2.0 | 0.00 | 0.00 | 0.00 | 24 | 1005.2 |
| 20260509000213 | 61 | 108 | 1.0 | 2.0 | 0.00 | 0.00 | 0.00 | 24 | 1005.1 |
| 20260508235710 | 62 | 338 | 1.0 | 2.0 | 0.00 | 0.00 | 0.00 | 25 | 1005.2 |
| 20260508235207 | 62 | 331 | 2.0 | 3.0 | 0.00 | 0.00 | 0.00 | 23 | 1005.2 |
| 20260508234704 | 62 | 359 | 2.0 | 2.0 | 0.00 | 0.00 | 0.00 | 24 | 1005.2 |
| 20260508234200 | 62 | 275 | 3.0 | 3.0 | 0.00 | 0.00 | 0.00 | 24 | 1005.1 |
| 20260508233700 | 62 | 6 | 2.0 | 3.0 | 0.00 | 0.00 | 0.00 | 24 | 1005.3 |
| 20260508233157 | 63 | 25 | 2.0 | 3.0 | 0.00 | 0.00 | 0.00 | 23 | 1005.1 |
| 20260508232655 | 63 | 11 | 3.0 | 3.0 | 0.00 | 0.00 | 0.00 | 23 | 1005.0 |
| 20260508232151 | 64 | 206 | 2.0 | 3.0 | 0.00 | 0.00 | 0.00 | 24 | 1004.9 |
| 20260508231649 | 64 | 358 | 0.0 | 1.0 | 0.00 | 0.00 | 0.00 | 23 | 1005.0 |
| 20260508231145 | 64 | 23 | 3.0 | 3.0 | 0.00 | 0.00 | 0.00 | 23 | 1004.9 |
| 20260508230642 | 64 | 322 | 1.0 | 3.0 | 0.00 | 0.00 | 0.00 | 22 | 1004.8 |
| 20260508230138 | 64 | 18 | 5.0 | 7.0 | 0.00 | 0.00 | 0.00 | 23 | 1004.8 |
| 20260508225637 | 64 | 47 | 3.0 | 3.0 | 0.00 | 0.00 | 0.00 | 24 | 1005.0 |
| 20260508225132 | 64 | 31 | 2.0 | 2.0 | 0.00 | 0.00 | 0.00 | 24 | 1004.7 |
| 20260508224630 | 65 | 332 | 1.0 | 1.0 | 0.00 | 0.00 | 0.00 | 23 | 1004.8 |
| 20260508224128 | 65 | 13 | 2.0 | 2.0 | 0.00 | 0.00 | 0.00 | 24 | 1004.9 |
| 20260508223626 | 65 | 345 | 3.0 | 3.0 | 0.00 | 0.00 | 0.00 | 23 | 1004.8 |
| 20260508223122 | 65 | 22 | 3.0 | 3.0 | 0.00 | 0.00 | 0.00 | 24 | 1004.7 |
| 20260508222620 | 66 | 338 | 1.0 | 1.0 | 0.00 | 0.00 | 0.00 | 25 | 1004.7 |